CORO2: Mud Creek nr Courtney, OK

Data processed at Wed May 22 2019 23:50


All information presented herein is the property of the government of the United States of America and may be revised or deleted at any time without prior notice.
Dissemination of this information without the expressed written consent of the Public Affairs Office, Tulsa District U.S. Army Corps of Engineers is strictly prohibited.
These data are gathered electronically and, as presented, have not undergone any form of quality control. These data are not guaranteed to be valid or correct.
Go to home page.
Go to station list.
Go to home page.

Downstream station:


Previous Day
Next Day
Current Day
    
SHEF ID:       CORO2     Mud Creek nr Courtney, OK
STATION TYPE:  

                STAGE  STAGE(2)  RIV-FLOW  BAT-LOAD
                   ft        ft       cfs      volt
              Ccp-Rev   Ccp-Rev   Ccp-Rev   Ccp-Rev
(US/Central)
05/22 00:00     20.39     20.39      1636     12.49
05/22 01:00     20.53     20.52      1671     12.49
05/22 02:00     20.66     20.63      1704     12.41
05/22 03:00     20.78     20.63      1734     12.49
05/22 04:00     20.88     20.73      1759     12.49
05/22 05:00     20.98     20.96      1785     12.41
05/22 06:00     21.06     21.21      1806     12.41
05/22 07:00     21.11     21.23      1819     12.41
05/22 08:00     21.13     21.39      1824     12.41
05/22 09:00     21.15     21.17      1829     12.57
05/22 10:00     21.13     21.14      1824     12.89
05/22 11:00     21.08     21.09      1811     13.05
05/22 12:00     21.02     21.07      1796     13.44
05/22 13:00     20.94     20.98      1775     13.05
05/22 14:00     20.84     21.21      1749     12.89
05/22 15:00     20.72     20.80      1719     13.05
05/22 16:00     20.62     20.72      1694     12.97
05/22 17:00     20.50     20.64      1664     12.89
05/22 18:00     20.41     20.59      1641     12.89
05/22 19:00     20.31     20.53      1617     12.81
05/22 20:00     20.22     20.29      1595     12.65
05/22 21:00     20.17     20.18      1582     12.57
05/22 22:00     20.10     20.10      1566     12.57
05/22 23:00      ----      ----      ----      ----